createdAt,value
2023-02-04T00:00:48.449Z,6.82
2023-02-04T00:03:17.264Z,6.63
2023-02-04T00:05:45.853Z,6.57
2023-02-04T00:08:15.531Z,7.50
2023-02-04T00:10:43.789Z,7.30
2023-02-04T00:13:13.980Z,6.85
2023-02-04T00:15:42.337Z,7.32
2023-02-04T00:18:10.711Z,7.15
2023-02-04T00:20:38.943Z,6.95
2023-02-04T00:23:07.249Z,7.40
2023-02-04T00:25:36.886Z,6.85
2023-02-04T00:28:06.390Z,7.68
2023-02-04T00:30:34.777Z,6.13
2023-02-04T00:33:03.022Z,6.53
2023-02-04T00:35:31.244Z,7.28
2023-02-04T00:37:59.570Z,7.80
2023-02-04T00:40:28.017Z,9.30
2023-02-04T00:42:57.688Z,7.43
2023-02-04T00:45:26.592Z,7.57
2023-02-04T00:47:58.244Z,7.60
2023-02-04T00:50:26.521Z,8.63
2023-02-04T00:52:54.828Z,8.80
2023-02-04T00:55:23.107Z,7.97
2023-02-04T00:57:51.569Z,8.27
2023-02-04T01:00:21.956Z,8.70
2023-02-04T01:02:50.391Z,8.35
2023-02-04T01:05:21.384Z,8.65
2023-02-04T01:07:49.837Z,8.30
2023-02-04T01:10:18.904Z,8.90
2023-02-04T01:12:47.648Z,8.80
2023-02-04T01:15:16.498Z,8.55
2023-02-04T01:17:46.092Z,8.93
2023-02-04T01:20:14.892Z,9.35
2023-02-04T01:22:43.214Z,8.93
2023-02-04T01:25:13.259Z,8.52
2023-02-04T01:27:41.535Z,8.35
2023-02-04T01:30:15.313Z,8.95
2023-02-04T01:32:45.075Z,9.45
2023-02-04T01:35:13.280Z,8.32
2023-02-04T01:37:41.557Z,10.32
2023-02-04T01:40:12.230Z,11.15
2023-02-04T01:42:40.667Z,8.10
2023-02-04T01:45:11.468Z,9.95
2023-02-04T01:47:40.428Z,10.13
2023-02-04T01:50:14.729Z,10.13
2023-02-04T01:52:44.014Z,10.02
2023-02-04T01:55:16.493Z,10.77
2023-02-04T01:57:45.689Z,10.45
2023-02-04T02:00:19.180Z,10.63
2023-02-04T02:02:50.435Z,10.25
2023-02-04T02:05:23.498Z,11.10
2023-02-04T02:07:54.772Z,10.77
2023-02-04T02:10:24.299Z,11.07
2023-02-04T02:12:52.759Z,10.65
2023-02-04T02:15:21.715Z,10.73
2023-02-04T02:17:49.996Z,10.95
2023-02-04T02:20:22.897Z,11.90
2023-02-04T02:23:03.777Z,11.13
2023-02-04T02:25:33.919Z,10.07
2023-02-04T02:28:04.264Z,11.05
2023-02-04T02:30:33.041Z,10.15
2023-02-04T02:33:01.676Z,10.23
2023-02-04T02:35:30.156Z,10.45
2023-02-04T02:38:00.201Z,11.23
2023-02-04T02:40:29.183Z,10.85
2023-02-04T02:42:58.988Z,11.32
2023-02-04T02:45:31.875Z,10.60
2023-02-04T02:48:03.725Z,10.88
2023-02-04T02:50:34.353Z,10.90
2023-02-04T02:53:04.271Z,10.23
2023-02-04T02:55:33.531Z,10.27
2023-02-04T02:58:03.285Z,10.15
2023-02-04T03:00:32.157Z,10.75
2023-02-04T03:03:06.680Z,10.55
2023-02-04T03:05:41.496Z,9.15
2023-02-04T03:08:10.305Z,10.20
2023-02-04T03:10:38.928Z,9.95
2023-02-04T03:13:08.740Z,9.65
2023-02-04T03:15:37.390Z,9.20
2023-02-04T03:18:05.841Z,8.45
2023-02-04T03:20:35.362Z,9.32
2023-02-04T03:23:03.733Z,8.25
2023-02-04T03:25:32.326Z,8.43
2023-02-04T03:28:00.805Z,8.43
2023-02-04T03:30:30.983Z,8.15
2023-02-04T03:32:59.521Z,8.23
2023-02-04T03:35:28.373Z,9.07
2023-02-04T03:37:58.511Z,8.25
2023-02-04T03:40:26.757Z,10.15
2023-02-04T03:42:55.026Z,9.32
2023-02-04T03:45:23.241Z,8.70
2023-02-04T03:47:52.970Z,9.07
2023-02-04T03:50:21.179Z,7.90
2023-02-04T03:52:51.599Z,8.73
2023-02-04T03:55:20.069Z,8.27
2023-02-04T03:57:48.370Z,7.38
2023-02-04T04:00:17.172Z,7.95
2023-02-04T04:02:45.530Z,8.40
2023-02-04T04:05:15.194Z,8.50
2023-02-04T04:07:43.502Z,8.52
2023-02-04T04:10:14.848Z,8.13
2023-02-04T04:12:43.184Z,8.68
2023-02-04T04:15:13.660Z,9.48
2023-02-04T04:17:42.025Z,7.65
2023-02-04T04:20:15.866Z,9.10
2023-02-04T04:22:45.684Z,7.40
2023-02-04T04:25:14.001Z,7.05
2023-02-04T04:27:42.746Z,7.22
2023-02-04T04:30:13.051Z,6.93
2023-02-04T04:32:41.288Z,8.05
2023-02-04T04:35:10.228Z,7.10
2023-02-04T04:37:40.006Z,6.93
2023-02-04T04:40:10.432Z,7.40
2023-02-04T04:42:38.646Z,7.93
2023-02-04T04:45:10.154Z,7.20
2023-02-04T04:47:38.470Z,5.97
2023-02-04T04:50:07.531Z,6.72
2023-02-04T04:52:35.961Z,6.97
2023-02-04T04:55:06.700Z,6.65
2023-02-04T04:57:34.965Z,6.55
2023-02-04T05:00:03.313Z,6.40
2023-02-04T05:02:31.708Z,7.30
2023-02-04T05:05:00.029Z,6.50
2023-02-04T05:07:28.507Z,5.78
2023-02-04T05:09:59.157Z,7.22
2023-02-04T05:12:28.777Z,5.65
2023-02-04T05:14:57.095Z,5.53
2023-02-04T05:17:25.698Z,5.90
2023-02-04T05:19:56.613Z,4.75
2023-02-04T05:22:24.967Z,5.20
2023-02-04T05:24:53.283Z,5.53
2023-02-04T05:27:21.626Z,5.68
2023-02-04T05:29:51.235Z,5.25
2023-02-04T05:32:19.473Z,6.47
2023-02-04T05:34:47.711Z,6.05
2023-02-04T05:37:17.712Z,7.20
2023-02-04T05:39:45.963Z,7.38
2023-02-04T05:42:14.333Z,8.65
2023-02-04T05:44:42.633Z,9.63
2023-02-04T05:47:15.118Z,9.63
2023-02-04T05:49:43.353Z,10.00
2023-02-04T05:52:11.750Z,9.90
2023-02-04T05:54:39.944Z,10.07
2023-02-04T05:57:08.302Z,10.27
2023-02-04T05:59:36.544Z,10.10
2023-02-04T06:02:04.807Z,10.32
2023-02-04T06:04:34.517Z,9.95
2023-02-04T06:07:03.381Z,9.85
2023-02-04T06:09:31.624Z,10.30
2023-02-04T06:11:59.813Z,9.75
2023-02-04T06:14:28.125Z,10.15
2023-02-04T06:16:56.634Z,11.10
2023-02-04T06:19:24.908Z,10.52
2023-02-04T06:21:54.551Z,9.93
2023-02-04T06:24:22.875Z,10.73
2023-02-04T06:26:51.148Z,10.10
2023-02-04T06:29:19.441Z,9.65
2023-02-04T06:31:49.392Z,10.18
2023-02-04T06:34:17.834Z,11.27
2023-02-04T06:36:46.040Z,10.10
2023-02-04T06:39:15.671Z,11.00
2023-02-04T06:41:43.924Z,11.57
2023-02-04T06:44:15.213Z,10.35
2023-02-04T06:46:43.456Z,11.68
2023-02-04T06:49:14.643Z,11.27
2023-02-04T06:51:42.812Z,11.27
2023-02-04T06:54:14.426Z,11.80
2023-02-04T06:56:43.969Z,10.98
2023-02-04T06:59:15.239Z,12.57
2023-02-04T07:01:43.502Z,11.65
2023-02-04T07:04:15.544Z,12.70
2023-02-04T07:06:43.715Z,13.27
2023-02-04T07:09:14.688Z,13.48
2023-02-04T07:11:44.287Z,13.13
2023-02-04T07:14:12.578Z,13.30
2023-02-04T07:16:40.717Z,12.55
2023-02-04T07:19:10.624Z,13.93
2023-02-04T07:21:38.820Z,13.60
2023-02-04T07:24:07.528Z,15.32
2023-02-04T07:26:35.868Z,14.75
2023-02-04T07:29:08.495Z,15.07
2023-02-04T07:31:40.558Z,14.73
2023-02-04T07:34:08.759Z,16.02
2023-02-04T07:36:37.170Z,14.77
2023-02-04T07:39:05.564Z,16.70
2023-02-04T07:41:33.780Z,16.83
2023-02-04T07:44:02.209Z,16.50
2023-02-04T07:46:31.898Z,17.48
2023-02-04T07:49:00.227Z,16.50
2023-02-04T07:51:28.511Z,16.52
2023-02-04T07:53:57.188Z,16.38
2023-02-04T07:56:25.643Z,17.17
2023-02-04T07:58:57.521Z,16.20
2023-02-04T08:01:26.119Z,15.63
2023-02-04T08:03:55.850Z,16.08
2023-02-04T08:06:24.198Z,15.38
2023-02-04T08:08:52.705Z,15.95
2023-02-04T08:11:20.920Z,14.55
2023-02-04T08:13:52.323Z,15.75
2023-02-04T08:16:21.719Z,14.07
2023-02-04T08:18:50.504Z,16.50
2023-02-04T08:21:26.693Z,14.63
2023-02-04T08:23:56.086Z,15.07
2023-02-04T08:26:24.978Z,15.15
2023-02-04T08:28:53.881Z,14.95
2023-02-04T08:31:23.029Z,14.38
2023-02-04T08:33:51.544Z,14.23
2023-02-04T08:36:20.218Z,14.95
2023-02-04T08:38:50.524Z,14.45
2023-02-04T08:41:20.560Z,14.73
2023-02-04T08:43:49.132Z,15.45
2023-02-04T08:46:17.836Z,14.18
2023-02-04T08:48:47.076Z,15.07
2023-02-04T08:51:15.503Z,14.07
2023-02-04T08:53:44.129Z,14.30
2023-02-04T08:56:25.392Z,14.55
2023-02-04T08:58:53.933Z,14.05
2023-02-04T09:01:22.193Z,13.88
2023-02-04T09:03:50.703Z,13.38
2023-02-04T09:06:19.061Z,13.85
2023-02-04T09:08:47.375Z,13.95
2023-02-04T09:11:16.967Z,14.98
2023-02-04T09:13:45.222Z,14.20
2023-02-04T09:16:14.251Z,15.15
2023-02-04T09:18:44.618Z,15.07
2023-02-04T09:21:12.897Z,15.63
2023-02-04T09:23:41.151Z,15.88
2023-02-04T09:26:10.518Z,15.60
2023-02-04T09:28:42.684Z,17.85
2023-02-04T09:31:12.007Z,16.50
2023-02-04T09:33:40.351Z,16.77
2023-02-04T09:36:10.051Z,18.77
2023-02-04T09:38:40.397Z,18.00
2023-02-04T09:41:11.714Z,17.17
2023-02-04T09:43:45.611Z,17.92
2023-02-04T09:46:22.698Z,17.90
2023-02-04T09:48:51.535Z,17.95
2023-02-04T09:51:24.814Z,17.95
2023-02-04T09:53:54.887Z,20.80
2023-02-04T09:56:23.198Z,22.88
2023-02-04T09:58:52.784Z,17.63
2023-02-04T10:01:23.481Z,17.08
2023-02-04T10:03:52.031Z,18.10
2023-02-04T10:06:24.068Z,17.60
2023-02-04T10:08:53.364Z,17.15
2023-02-04T10:11:24.207Z,17.27
2023-02-04T10:13:56.202Z,15.25
2023-02-04T10:16:30.116Z,15.02
2023-02-04T10:19:00.253Z,14.63
2023-02-04T10:21:34.991Z,12.20
2023-02-04T10:24:08.536Z,10.82
2023-02-04T10:26:36.932Z,9.48
2023-02-04T10:29:09.840Z,9.93
2023-02-04T10:31:41.923Z,10.32
2023-02-04T10:34:18.591Z,7.40
2023-02-04T10:36:50.150Z,8.52
2023-02-04T10:39:21.031Z,8.95
2023-02-04T10:41:51.407Z,6.68
2023-02-04T10:44:27.741Z,7.68
2023-02-04T10:47:01.619Z,6.57
2023-02-04T10:49:30.257Z,6.90
2023-02-04T10:51:58.627Z,6.25
2023-02-04T10:54:30.372Z,6.80
2023-02-04T10:57:00.794Z,5.28
2023-02-04T10:59:30.661Z,6.35
2023-02-04T11:02:07.326Z,6.93
2023-02-04T11:04:36.248Z,7.95
2023-02-04T11:07:04.450Z,8.80
2023-02-04T11:09:32.702Z,9.02
2023-02-04T11:12:01.178Z,9.10
2023-02-04T11:14:40.739Z,9.52
2023-02-04T11:17:09.016Z,8.93
2023-02-04T11:19:40.170Z,9.65
2023-02-04T11:22:23.807Z,8.73
2023-02-04T11:24:52.839Z,10.30
2023-02-04T11:27:26.706Z,9.65
2023-02-04T11:30:07.802Z,10.15
2023-02-04T11:32:38.114Z,10.25
2023-02-04T11:35:25.493Z,9.35
2023-02-04T11:38:01.955Z,10.15
2023-02-04T11:40:34.897Z,11.10
2023-02-04T11:43:12.916Z,10.70
2023-02-04T11:45:44.226Z,10.60
2023-02-04T11:48:19.194Z,10.82
2023-02-04T11:50:57.926Z,10.27
2023-02-04T11:53:30.344Z,10.32
2023-02-04T11:55:59.499Z,11.05
2023-02-04T11:58:31.097Z,11.40
2023-02-04T12:01:01.285Z,10.82
2023-02-04T12:03:34.900Z,10.77
2023-02-04T12:06:03.333Z,9.93
2023-02-04T12:08:53.133Z,11.43
2023-02-04T12:11:41.012Z,10.52
2023-02-04T12:14:12.895Z,9.50
2023-02-04T12:16:53.508Z,10.73
2023-02-04T12:19:22.232Z,9.65
2023-02-04T12:21:50.755Z,9.23
2023-02-04T12:24:19.346Z,10.20
2023-02-04T12:26:47.884Z,12.73
2023-02-04T12:29:16.145Z,12.68
2023-02-04T12:31:44.556Z,12.55
2023-02-04T12:34:14.295Z,10.63
2023-02-04T12:36:42.536Z,8.77
2023-02-04T12:39:11.593Z,10.02
2023-02-04T12:41:39.925Z,9.57
2023-02-04T12:44:08.321Z,9.52
2023-02-04T12:46:38.583Z,8.90
2023-02-04T12:49:08.857Z,9.52
2023-02-04T12:51:39.282Z,9.38
2023-02-04T12:54:07.669Z,10.07
2023-02-04T12:56:35.884Z,10.68
2023-02-04T12:59:04.248Z,11.25
2023-02-04T13:01:35.353Z,9.85
2023-02-04T13:04:03.826Z,11.30
2023-02-04T13:06:32.276Z,11.25
2023-02-04T13:09:02.104Z,10.30
2023-02-04T13:11:32.600Z,8.95
2023-02-04T13:14:00.863Z,9.77
2023-02-04T13:16:29.228Z,7.63
2023-02-04T13:18:57.688Z,7.65
2023-02-04T13:21:25.945Z,6.93
2023-02-04T13:23:56.507Z,5.20
2023-02-04T13:26:26.775Z,5.85
2023-02-04T13:28:54.918Z,5.55
2023-02-04T13:31:23.309Z,7.10
2023-02-04T13:33:51.597Z,5.97
2023-02-04T13:36:20.520Z,6.22
2023-02-04T13:38:49.013Z,5.78
2023-02-04T13:41:17.917Z,5.68
2023-02-04T13:43:47.814Z,5.72
2023-02-04T13:46:16.045Z,5.68
2023-02-04T13:48:44.478Z,5.20
2023-02-04T13:51:12.720Z,4.43
2023-02-04T13:53:41.089Z,4.22
2023-02-04T13:56:09.813Z,4.10
2023-02-04T13:58:38.000Z,4.65
2023-02-04T14:01:07.732Z,4.18
2023-02-04T14:03:36.076Z,4.47
2023-02-04T14:06:04.987Z,4.85
2023-02-04T14:08:33.899Z,4.53
2023-02-04T14:11:02.360Z,3.88
2023-02-04T14:13:30.929Z,4.65
2023-02-04T14:15:59.190Z,4.70
2023-02-04T14:18:28.968Z,4.40
2023-02-04T14:20:59.934Z,3.97
2023-02-04T14:23:28.225Z,3.50
2023-02-04T14:25:58.926Z,4.10
2023-02-04T14:28:27.201Z,4.25
2023-02-04T14:30:55.654Z,4.10
2023-02-04T14:33:24.342Z,5.18
2023-02-04T14:35:56.396Z,4.47
2023-02-04T14:38:30.779Z,4.63
2023-02-04T14:41:00.340Z,4.43
2023-02-04T14:43:28.697Z,4.78
2023-02-04T14:45:59.757Z,5.50
2023-02-04T14:48:28.006Z,5.95
2023-02-04T14:50:57.651Z,6.25
2023-02-04T14:53:33.386Z,13.70
2023-02-04T14:56:01.660Z,17.42
2023-02-04T14:58:30.072Z,12.23
2023-02-04T15:00:59.033Z,11.70
2023-02-04T15:03:27.808Z,7.90
2023-02-04T15:05:57.509Z,6.25
2023-02-04T15:08:26.969Z,5.40
2023-02-04T15:10:56.017Z,5.53
2023-02-04T15:13:24.556Z,5.03
2023-02-04T15:15:52.874Z,4.45
2023-02-04T15:18:21.791Z,4.53
2023-02-04T15:20:50.010Z,5.13
2023-02-04T15:26:26.958Z,3.75
2023-02-04T15:28:56.004Z,3.83
2023-02-04T15:31:27.635Z,3.65
2023-02-04T15:33:56.046Z,3.83
2023-02-04T15:36:30.820Z,4.22
2023-02-04T15:39:00.430Z,4.53
2023-02-04T15:41:29.065Z,4.50
2023-02-04T15:43:59.189Z,4.10
2023-02-04T15:46:27.866Z,5.03
2023-02-04T15:48:56.050Z,4.78
2023-02-04T15:51:24.323Z,5.68
2023-02-04T15:53:52.864Z,6.07
2023-02-04T15:56:22.650Z,4.75
2023-02-04T15:58:50.885Z,4.97
2023-02-04T16:01:20.035Z,5.90
2023-02-04T16:03:50.134Z,5.70
2023-02-04T16:06:18.612Z,5.90
2023-02-04T16:08:47.009Z,6.13
2023-02-04T16:11:15.261Z,6.03
2023-02-04T16:13:46.728Z,6.95
2023-02-04T16:16:16.071Z,7.97
2023-02-04T16:18:44.395Z,7.80
2023-02-04T16:21:12.580Z,7.30
2023-02-04T16:23:43.287Z,6.10
2023-02-04T16:26:14.774Z,6.00
2023-02-04T16:28:47.278Z,6.47
2023-02-04T16:31:16.617Z,5.63
2023-02-04T16:33:44.961Z,5.78
2023-02-04T16:36:13.757Z,6.22
2023-02-04T16:38:43.564Z,6.78
2023-02-04T16:41:15.192Z,8.93
2023-02-04T16:43:45.133Z,7.93
2023-02-04T16:46:15.160Z,10.02
2023-02-04T16:48:45.656Z,8.70
2023-02-04T16:51:14.116Z,8.32
2023-02-04T16:53:42.421Z,8.43
2023-02-04T16:56:12.827Z,9.27
2023-02-04T16:58:41.165Z,10.00
2023-02-04T17:01:11.639Z,9.98
2023-02-04T17:03:39.909Z,10.60
2023-02-04T17:06:08.885Z,10.30
2023-02-04T17:08:37.102Z,10.10
2023-02-04T17:11:23.454Z,8.77
2023-02-04T17:13:51.675Z,13.65
2023-02-04T17:16:21.905Z,10.15
2023-02-04T17:18:50.201Z,14.32
2023-02-04T17:21:18.880Z,12.88
2023-02-04T17:23:49.734Z,12.13
2023-02-04T17:26:19.332Z,10.50
2023-02-04T17:28:47.595Z,10.05
2023-02-04T17:31:16.127Z,11.25
2023-02-04T17:33:47.312Z,9.65
2023-02-04T17:36:15.597Z,11.40
2023-02-04T17:38:43.854Z,12.18
2023-02-04T17:41:12.278Z,12.38
2023-02-04T17:43:40.793Z,15.35
2023-02-04T17:46:09.104Z,12.65
2023-02-04T17:48:38.196Z,12.82
2023-02-04T17:51:08.431Z,11.25
2023-02-04T17:53:38.781Z,12.05
2023-02-04T17:56:11.663Z,11.73
2023-02-04T17:58:40.383Z,11.57
2023-02-04T18:01:13.595Z,11.98
2023-02-04T18:03:46.429Z,14.80
2023-02-04T18:06:23.478Z,15.38
2023-02-04T18:08:53.176Z,15.30
2023-02-04T18:11:27.420Z,18.00
2023-02-04T18:14:01.592Z,19.88
2023-02-04T18:16:31.962Z,18.83
2023-02-04T18:19:18.252Z,19.63
2023-02-04T18:21:49.054Z,20.73
2023-02-04T18:24:20.396Z,20.98
2023-02-04T18:26:51.393Z,20.83
2023-02-04T18:29:35.276Z,21.70
2023-02-04T18:32:10.059Z,21.42
2023-02-04T18:34:41.240Z,20.88
2023-02-04T18:37:29.645Z,21.38
2023-02-04T18:40:25.015Z,22.17
2023-02-04T18:43:04.822Z,23.55
2023-02-04T18:45:34.418Z,24.17
2023-02-04T18:48:56.876Z,23.63
2023-02-04T18:51:32.499Z,23.75
2023-02-04T18:54:25.301Z,24.83
2023-02-04T18:56:56.517Z,24.83
2023-02-04T18:59:34.190Z,25.15
2023-02-04T19:02:02.841Z,23.38
2023-02-04T19:04:34.596Z,26.10
2023-02-04T19:07:03.668Z,27.98
2023-02-04T19:09:38.128Z,27.08
2023-02-04T19:12:22.326Z,27.73
2023-02-04T19:14:51.654Z,26.95
2023-02-04T19:17:27.728Z,28.08
2023-02-04T19:20:11.865Z,27.90
2023-02-04T19:22:46.432Z,26.17
2023-02-04T19:25:34.319Z,28.50
2023-02-04T19:28:14.649Z,28.80
2023-02-04T19:30:51.145Z,29.90
2023-02-04T19:33:27.393Z,29.55
2023-02-04T19:35:56.241Z,29.92
2023-02-04T19:38:44.522Z,30.20
2023-02-04T19:41:30.337Z,30.63
2023-02-04T19:44:41.855Z,30.30
2023-02-04T19:47:28.357Z,32.42
2023-02-04T19:50:16.352Z,31.75
2023-02-04T19:52:48.881Z,32.17
2023-02-04T19:55:37.057Z,31.98
2023-02-04T19:58:23.158Z,32.67
2023-02-04T20:01:00.636Z,30.05
2023-02-04T20:03:42.127Z,29.92
2023-02-04T20:06:30.330Z,28.33
2023-02-04T20:09:05.886Z,29.88
2023-02-04T20:12:06.071Z,30.33
2023-02-04T20:14:56.150Z,31.83
2023-02-04T20:17:41.501Z,32.38
2023-02-04T20:20:24.611Z,31.70
2023-02-04T20:22:56.333Z,31.52
2023-02-04T20:25:47.344Z,33.75
2023-02-04T20:28:36.699Z,31.42
2023-02-04T20:31:28.879Z,31.35
2023-02-04T20:34:01.646Z,31.80
2023-02-04T20:36:41.177Z,31.75
2023-02-04T20:39:31.052Z,31.77
2023-02-04T20:42:35.083Z,32.72
2023-02-04T20:45:35.797Z,31.88
2023-02-04T20:48:30.504Z,30.92
2023-02-04T20:51:05.660Z,33.28
2023-02-04T20:54:19.461Z,31.52
2023-02-04T20:57:10.438Z,31.63
2023-02-04T20:59:42.997Z,30.30
2023-02-04T21:02:34.763Z,33.75
2023-02-04T21:05:31.810Z,31.67
2023-02-04T21:08:02.216Z,33.08
2023-02-04T21:10:32.158Z,32.03
2023-02-04T21:13:03.824Z,34.53
2023-02-04T21:15:33.921Z,34.85
2023-02-04T21:18:02.495Z,33.42
2023-02-04T21:20:34.804Z,33.38
2023-02-04T21:23:03.530Z,35.35
2023-02-04T21:25:32.502Z,36.30
2023-02-04T21:28:01.203Z,35.03
2023-02-04T21:30:30.360Z,36.65
2023-02-04T21:32:58.685Z,35.58
2023-02-04T21:35:27.070Z,34.88
2023-02-04T21:37:59.939Z,37.38
2023-02-04T21:40:28.950Z,35.92
2023-02-04T21:42:59.206Z,36.50
2023-02-04T21:45:27.788Z,35.60
2023-02-04T21:47:56.033Z,34.15
2023-02-04T21:50:24.504Z,34.80
2023-02-04T21:52:52.876Z,32.97
2023-02-04T21:55:23.006Z,32.50
2023-02-04T21:57:52.299Z,32.50
2023-02-04T22:00:23.916Z,31.13
2023-02-04T22:02:53.114Z,31.55
2023-02-04T22:05:22.836Z,32.10
2023-02-04T22:07:52.410Z,31.58
2023-02-04T22:10:25.231Z,30.85
2023-02-04T22:12:53.792Z,29.80
2023-02-04T22:15:23.620Z,30.13
2023-02-04T22:17:53.983Z,29.80
2023-02-04T22:20:25.293Z,30.10
2023-02-04T22:22:54.562Z,28.35
2023-02-04T22:25:24.370Z,30.00
2023-02-04T22:27:52.747Z,29.52
2023-02-04T22:30:21.690Z,28.75
2023-02-04T22:32:49.960Z,27.15
2023-02-04T22:35:19.937Z,29.27
2023-02-04T22:37:48.215Z,26.73
2023-02-04T22:40:16.451Z,25.90
2023-02-04T22:42:46.063Z,24.40
2023-02-04T22:45:14.503Z,25.00
2023-02-04T22:47:42.855Z,26.15
2023-02-04T22:50:11.785Z,26.30
2023-02-04T22:52:40.072Z,25.23
2023-02-04T22:55:08.965Z,25.65
2023-02-04T22:57:37.322Z,24.83
2023-02-04T23:00:10.735Z,23.90
2023-02-04T23:02:38.949Z,24.55
2023-02-04T23:05:07.968Z,26.13
2023-02-04T23:07:36.409Z,24.67
2023-02-04T23:10:04.947Z,24.98
2023-02-04T23:12:35.864Z,24.92
2023-02-04T23:15:04.611Z,25.90
2023-02-04T23:17:34.277Z,23.73
2023-02-04T23:20:02.601Z,24.77
2023-02-04T23:22:30.983Z,23.98
2023-02-04T23:25:01.091Z,24.17
2023-02-04T23:27:29.307Z,23.73
2023-02-04T23:29:57.516Z,24.50
2023-02-04T23:32:27.077Z,23.95
2023-02-04T23:34:56.864Z,25.90
2023-02-04T23:37:25.483Z,25.27
2023-02-04T23:39:53.720Z,24.23
2023-02-04T23:42:22.176Z,25.70
2023-02-04T23:44:50.668Z,25.05
2023-02-04T23:47:18.978Z,26.65
2023-02-04T23:49:47.299Z,26.17
2023-02-04T23:52:20.420Z,25.52
2023-02-04T23:54:48.644Z,28.05
2023-02-04T23:57:17.024Z,28.58
2023-02-04T23:59:47.707Z,29.55
